sensor_id;sensor_type;location;lat;lon;timestamp;temperature;humidity
8988;DHT22;4529;51.360;12.474;2022-09-03T00:03:51;16.30;99.90
8988;DHT22;4529;51.360;12.474;2022-09-03T00:09:11;16.20;99.90
8988;DHT22;4529;51.360;12.474;2022-09-03T00:14:13;16.20;99.90
8988;DHT22;4529;51.360;12.474;2022-09-03T00:19:19;16.10;99.90
8988;DHT22;4529;51.360;12.474;2022-09-03T00:24:22;15.90;99.90
8988;DHT22;4529;51.360;12.474;2022-09-03T00:29:36;15.90;99.90
8988;DHT22;4529;51.360;12.474;2022-09-03T00:34:39;15.80;99.90
8988;DHT22;4529;51.360;12.474;2022-09-03T00:39:42;15.70;99.90
8988;DHT22;4529;51.360;12.474;2022-09-03T00:45:07;15.60;99.90
8988;DHT22;4529;51.360;12.474;2022-09-03T01:01:45;15.50;99.90
8988;DHT22;4529;51.360;12.474;2022-09-03T01:07:11;15.60;99.90
8988;DHT22;4529;51.360;12.474;2022-09-03T01:12:45;15.60;99.90
8988;DHT22;4529;51.360;12.474;2022-09-03T01:17:45;15.60;99.90
8988;DHT22;4529;51.360;12.474;2022-09-03T01:22:56;15.60;99.90
8988;DHT22;4529;51.360;12.474;2022-09-03T01:33:25;15.60;99.90
8988;DHT22;4529;51.360;12.474;2022-09-03T01:38:28;15.60;99.90
8988;DHT22;4529;51.360;12.474;2022-09-03T01:43:33;15.60;99.90
8988;DHT22;4529;51.360;12.474;2022-09-03T01:54:25;15.60;99.90
8988;DHT22;4529;51.360;12.474;2022-09-03T01:59:30;15.60;99.90
8988;DHT22;4529;51.360;12.474;2022-09-03T02:04:33;15.60;99.90
8988;DHT22;4529;51.360;12.474;2022-09-03T02:09:37;15.50;99.90
8988;DHT22;4529;51.360;12.474;2022-09-03T02:14:40;15.50;99.90
8988;DHT22;4529;51.360;12.474;2022-09-03T02:19:43;15.40;99.90
8988;DHT22;4529;51.360;12.474;2022-09-03T02:24:47;15.40;99.90
8988;DHT22;4529;51.360;12.474;2022-09-03T02:29:50;15.20;99.90
8988;DHT22;4529;51.360;12.474;2022-09-03T02:34:54;15.10;99.90
8988;DHT22;4529;51.360;12.474;2022-09-03T02:39:57;15.10;99.90
8988;DHT22;4529;51.360;12.474;2022-09-03T02:45:09;14.90;99.90
8988;DHT22;4529;51.360;12.474;2022-09-03T02:50:10;14.90;99.90
8988;DHT22;4529;51.360;12.474;2022-09-03T02:55:14;14.50;99.90
8988;DHT22;4529;51.360;12.474;2022-09-03T03:00:18;14.20;99.90
8988;DHT22;4529;51.360;12.474;2022-09-03T03:05:26;14.10;99.90
8988;DHT22;4529;51.360;12.474;2022-09-03T03:10:28;14.10;99.90
8988;DHT22;4529;51.360;12.474;2022-09-03T03:15:32;14.10;99.90
8988;DHT22;4529;51.360;12.474;2022-09-03T03:20:35;14.00;99.90
8988;DHT22;4529;51.360;12.474;2022-09-03T03:25:39;13.90;99.90
8988;DHT22;4529;51.360;12.474;2022-09-03T03:30:42;14.00;99.90
8988;DHT22;4529;51.360;12.474;2022-09-03T03:35:46;14.00;99.90
8988;DHT22;4529;51.360;12.474;2022-09-03T03:40:49;14.10;99.90
8988;DHT22;4529;51.360;12.474;2022-09-03T03:45:59;14.10;99.90
8988;DHT22;4529;51.360;12.474;2022-09-03T03:51:03;14.10;99.90
8988;DHT22;4529;51.360;12.474;2022-09-03T03:56:06;14.10;99.90
8988;DHT22;4529;51.360;12.474;2022-09-03T04:01:15;14.10;99.90
8988;DHT22;4529;51.360;12.474;2022-09-03T04:06:18;14.10;99.90
8988;DHT22;4529;51.360;12.474;2022-09-03T04:11:22;14.10;99.90
8988;DHT22;4529;51.360;12.474;2022-09-03T04:16:26;14.00;99.90
8988;DHT22;4529;51.360;12.474;2022-09-03T04:21:29;14.00;99.90
8988;DHT22;4529;51.360;12.474;2022-09-03T04:26:32;13.90;99.90
8988;DHT22;4529;51.360;12.474;2022-09-03T04:31:36;13.80;99.90
8988;DHT22;4529;51.360;12.474;2022-09-03T04:36:39;13.80;99.90
8988;DHT22;4529;51.360;12.474;2022-09-03T04:41:42;13.70;99.90
8988;DHT22;4529;51.360;12.474;2022-09-03T04:46:46;13.60;99.90
8988;DHT22;4529;51.360;12.474;2022-09-03T04:51:49;13.60;99.90
8988;DHT22;4529;51.360;12.474;2022-09-03T04:56:53;13.60;99.90
8988;DHT22;4529;51.360;12.474;2022-09-03T05:01:56;13.50;99.90
8988;DHT22;4529;51.360;12.474;2022-09-03T05:07:00;13.50;99.90
8988;DHT22;4529;51.360;12.474;2022-09-03T05:12:03;13.50;99.90
8988;DHT22;4529;51.360;12.474;2022-09-03T05:17:07;13.60;99.90
8988;DHT22;4529;51.360;12.474;2022-09-03T05:22:11;13.70;99.90
8988;DHT22;4529;51.360;12.474;2022-09-03T05:27:16;13.80;99.90
8988;DHT22;4529;51.360;12.474;2022-09-03T05:32:20;13.90;99.90
8988;DHT22;4529;51.360;12.474;2022-09-03T05:37:24;14.00;99.90
8988;DHT22;4529;51.360;12.474;2022-09-03T05:42:28;14.10;99.90
8988;DHT22;4529;51.360;12.474;2022-09-03T05:47:32;14.30;99.90
8988;DHT22;4529;51.360;12.474;2022-09-03T05:52:41;14.40;99.90
8988;DHT22;4529;51.360;12.474;2022-09-03T05:57:50;14.40;99.90
8988;DHT22;4529;51.360;12.474;2022-09-03T06:02:54;14.50;99.90
8988;DHT22;4529;51.360;12.474;2022-09-03T06:07:57;14.70;99.90
8988;DHT22;4529;51.360;12.474;2022-09-03T06:13:01;14.80;99.90
8988;DHT22;4529;51.360;12.474;2022-09-03T06:18:04;14.90;99.90
8988;DHT22;4529;51.360;12.474;2022-09-03T06:23:07;15.00;99.90
8988;DHT22;4529;51.360;12.474;2022-09-03T06:28:11;15.00;99.90
8988;DHT22;4529;51.360;12.474;2022-09-03T06:33:14;15.20;99.90
8988;DHT22;4529;51.360;12.474;2022-09-03T06:38:18;15.40;99.90
8988;DHT22;4529;51.360;12.474;2022-09-03T06:43:22;15.40;99.90
8988;DHT22;4529;51.360;12.474;2022-09-03T06:48:25;15.60;99.90
8988;DHT22;4529;51.360;12.474;2022-09-03T06:53:29;15.70;99.90
8988;DHT22;4529;51.360;12.474;2022-09-03T06:58:33;15.70;99.90
8988;DHT22;4529;51.360;12.474;2022-09-03T07:03:36;15.70;99.90
8988;DHT22;4529;51.360;12.474;2022-09-03T07:08:39;15.80;99.90
8988;DHT22;4529;51.360;12.474;2022-09-03T07:13:43;16.00;99.90
8988;DHT22;4529;51.360;12.474;2022-09-03T07:18:46;16.20;99.90
8988;DHT22;4529;51.360;12.474;2022-09-03T07:23:49;16.40;99.90
8988;DHT22;4529;51.360;12.474;2022-09-03T07:28:53;16.60;99.90
8988;DHT22;4529;51.360;12.474;2022-09-03T07:33:56;16.70;99.90
8988;DHT22;4529;51.360;12.474;2022-09-03T07:38:59;17.10;99.90
8988;DHT22;4529;51.360;12.474;2022-09-03T07:44:03;17.40;99.90
8988;DHT22;4529;51.360;12.474;2022-09-03T07:49:06;17.60;99.90
8988;DHT22;4529;51.360;12.474;2022-09-03T07:54:10;17.90;99.90
8988;DHT22;4529;51.360;12.474;2022-09-03T07:59:13;18.10;99.90
8988;DHT22;4529;51.360;12.474;2022-09-03T08:04:17;18.50;99.90
8988;DHT22;4529;51.360;12.474;2022-09-03T08:09:20;18.60;99.90
8988;DHT22;4529;51.360;12.474;2022-09-03T08:14:24;18.80;99.90
8988;DHT22;4529;51.360;12.474;2022-09-03T08:19:27;19.00;99.90
8988;DHT22;4529;51.360;12.474;2022-09-03T08:24:31;19.30;99.90
8988;DHT22;4529;51.360;12.474;2022-09-03T08:29:34;19.20;99.90
8988;DHT22;4529;51.360;12.474;2022-09-03T08:34:38;19.50;99.90
8988;DHT22;4529;51.360;12.474;2022-09-03T08:39:41;19.50;99.90
8988;DHT22;4529;51.360;12.474;2022-09-03T08:44:59;19.60;99.90
8988;DHT22;4529;51.360;12.474;2022-09-03T08:50:31;19.80;99.90
8988;DHT22;4529;51.360;12.474;2022-09-03T08:55:37;19.80;99.90
8988;DHT22;4529;51.360;12.474;2022-09-03T09:00:42;20.00;99.90
8988;DHT22;4529;51.360;12.474;2022-09-03T09:05:47;20.10;99.90
8988;DHT22;4529;51.360;12.474;2022-09-03T09:11:04;20.10;99.90
8988;DHT22;4529;51.360;12.474;2022-09-03T09:16:42;20.20;99.90
8988;DHT22;4529;51.360;12.474;2022-09-03T09:21:55;20.50;99.90
8988;DHT22;4529;51.360;12.474;2022-09-03T09:26:59;20.60;99.90
8988;DHT22;4529;51.360;12.474;2022-09-03T09:32:02;20.50;99.90
8988;DHT22;4529;51.360;12.474;2022-09-03T09:37:09;20.70;99.90
8988;DHT22;4529;51.360;12.474;2022-09-03T09:42:10;20.60;99.90
8988;DHT22;4529;51.360;12.474;2022-09-03T09:47:30;20.80;99.90
8988;DHT22;4529;51.360;12.474;2022-09-03T09:52:32;20.70;99.90
8988;DHT22;4529;51.360;12.474;2022-09-03T09:57:37;20.90;99.90
8988;DHT22;4529;51.360;12.474;2022-09-03T10:02:49;20.90;99.90
8988;DHT22;4529;51.360;12.474;2022-09-03T10:08:02;20.80;99.90
8988;DHT22;4529;51.360;12.474;2022-09-03T10:13:13;20.80;99.90
8988;DHT22;4529;51.360;12.474;2022-09-03T10:24:24;21.10;99.90
8988;DHT22;4529;51.360;12.474;2022-09-03T10:29:25;21.20;99.90
8988;DHT22;4529;51.360;12.474;2022-09-03T10:40:19;21.30;99.90
8988;DHT22;4529;51.360;12.474;2022-09-03T10:51:31;21.60;99.90
8988;DHT22;4529;51.360;12.474;2022-09-03T10:56:44;21.70;99.90
8988;DHT22;4529;51.360;12.474;2022-09-03T11:02:00;21.80;99.90
8988;DHT22;4529;51.360;12.474;2022-09-03T11:07:03;21.80;99.90
8988;DHT22;4529;51.360;12.474;2022-09-03T11:12:10;22.00;99.90
8988;DHT22;4529;51.360;12.474;2022-09-03T11:17:19;22.10;99.90
8988;DHT22;4529;51.360;12.474;2022-09-03T11:22:19;22.00;99.90
8988;DHT22;4529;51.360;12.474;2022-09-03T11:32:54;22.10;99.90
8988;DHT22;4529;51.360;12.474;2022-09-03T11:38:03;22.00;99.90
8988;DHT22;4529;51.360;12.474;2022-09-03T11:48:40;22.20;99.90
8988;DHT22;4529;51.360;12.474;2022-09-03T11:53:51;22.30;99.90
8988;DHT22;4529;51.360;12.474;2022-09-03T11:58:45;22.30;99.90
8988;DHT22;4529;51.360;12.474;2022-09-03T12:03:58;22.60;99.90
8988;DHT22;4529;51.360;12.474;2022-09-03T12:14:49;22.60;99.90
8988;DHT22;4529;51.360;12.474;2022-09-03T12:19:53;22.60;99.90
8988;DHT22;4529;51.360;12.474;2022-09-03T12:25:06;22.80;99.90
8988;DHT22;4529;51.360;12.474;2022-09-03T12:30:00;22.70;99.90
8988;DHT22;4529;51.360;12.474;2022-09-03T12:35:16;22.60;99.90
8988;DHT22;4529;51.360;12.474;2022-09-03T12:40:28;22.90;99.90
8988;DHT22;4529;51.360;12.474;2022-09-03T12:45:30;22.70;99.90
8988;DHT22;4529;51.360;12.474;2022-09-03T12:50:35;22.90;99.90
8988;DHT22;4529;51.360;12.474;2022-09-03T12:55:41;22.70;99.90
8988;DHT22;4529;51.360;12.474;2022-09-03T13:00:48;22.80;99.90
8988;DHT22;4529;51.360;12.474;2022-09-03T13:06:05;22.70;99.90
8988;DHT22;4529;51.360;12.474;2022-09-03T13:11:06;22.70;99.90
8988;DHT22;4529;51.360;12.474;2022-09-03T13:21:58;22.70;99.90
8988;DHT22;4529;51.360;12.474;2022-09-03T13:27:10;22.90;99.90
8988;DHT22;4529;51.360;12.474;2022-09-03T13:38:04;22.90;99.90
8988;DHT22;4529;51.360;12.474;2022-09-03T13:43:19;22.90;99.90
8988;DHT22;4529;51.360;12.474;2022-09-03T13:48:37;22.90;99.90
8988;DHT22;4529;51.360;12.474;2022-09-03T13:59:39;23.10;99.90
8988;DHT22;4529;51.360;12.474;2022-09-03T14:10:15;23.10;99.90
8988;DHT22;4529;51.360;12.474;2022-09-03T14:15:27;23.10;99.90
8988;DHT22;4529;51.360;12.474;2022-09-03T14:20:31;23.10;99.90
8988;DHT22;4529;51.360;12.474;2022-09-03T14:25:38;23.10;99.90
8988;DHT22;4529;51.360;12.474;2022-09-03T14:31:00;23.10;99.90
8988;DHT22;4529;51.360;12.474;2022-09-03T14:36:21;23.00;99.90
8988;DHT22;4529;51.360;12.474;2022-09-03T14:41:44;23.10;99.90
8988;DHT22;4529;51.360;12.474;2022-09-03T14:52:50;23.10;99.90
8988;DHT22;4529;51.360;12.474;2022-09-03T15:03:05;23.10;99.90
8988;DHT22;4529;51.360;12.474;2022-09-03T15:08:20;23.10;99.90
8988;DHT22;4529;51.360;12.474;2022-09-03T15:13:46;22.90;99.90
8988;DHT22;4529;51.360;12.474;2022-09-03T15:24:53;22.50;99.90
8988;DHT22;4529;51.360;12.474;2022-09-03T15:30:15;22.40;99.90
8988;DHT22;4529;51.360;12.474;2022-09-03T15:35:28;22.40;99.90
8988;DHT22;4529;51.360;12.474;2022-09-03T15:40:34;22.50;99.90
8988;DHT22;4529;51.360;12.474;2022-09-03T15:50:54;22.80;99.90
8988;DHT22;4529;51.360;12.474;2022-09-03T15:56:17;22.70;99.90
8988;DHT22;4529;51.360;12.474;2022-09-03T16:01:47;22.70;99.90
8988;DHT22;4529;51.360;12.474;2022-09-03T16:07:17;22.80;99.90
8988;DHT22;4529;51.360;12.474;2022-09-03T16:12:46;22.80;99.90
8988;DHT22;4529;51.360;12.474;2022-09-03T16:18:05;22.70;99.90
8988;DHT22;4529;51.360;12.474;2022-09-03T16:34:01;22.60;99.90
8988;DHT22;4529;51.360;12.474;2022-09-03T16:39:26;22.50;99.90
8988;DHT22;4529;51.360;12.474;2022-09-03T16:44:53;22.40;99.90
8988;DHT22;4529;51.360;12.474;2022-09-03T17:00:58;22.30;99.90
8988;DHT22;4529;51.360;12.474;2022-09-03T17:11:50;22.20;99.90
8988;DHT22;4529;51.360;12.474;2022-09-03T17:23:21;21.90;99.90
8988;DHT22;4529;51.360;12.474;2022-09-03T17:33:39;21.90;99.90
8988;DHT22;4529;51.360;12.474;2022-09-03T17:39:05;21.90;99.90
8988;DHT22;4529;51.360;12.474;2022-09-03T17:44:17;21.80;99.90
8988;DHT22;4529;51.360;12.474;2022-09-03T17:49:25;21.60;99.90
8988;DHT22;4529;51.360;12.474;2022-09-03T17:54:43;21.50;99.90
8988;DHT22;4529;51.360;12.474;2022-09-03T17:59:54;21.40;99.90
8988;DHT22;4529;51.360;12.474;2022-09-03T18:04:52;21.20;99.90
8988;DHT22;4529;51.360;12.474;2022-09-03T18:15:27;21.00;99.90
8988;DHT22;4529;51.360;12.474;2022-09-03T18:20:29;20.90;99.90
8988;DHT22;4529;51.360;12.474;2022-09-03T18:25:32;20.80;99.90
8988;DHT22;4529;51.360;12.474;2022-09-03T18:30:35;20.70;99.90
8988;DHT22;4529;51.360;12.474;2022-09-03T18:35:39;20.60;99.90
8988;DHT22;4529;51.360;12.474;2022-09-03T18:40:49;20.30;99.90
8988;DHT22;4529;51.360;12.474;2022-09-03T18:46:06;20.00;99.90
8988;DHT22;4529;51.360;12.474;2022-09-03T18:56:50;19.80;99.90
8988;DHT22;4529;51.360;12.474;2022-09-03T19:01:54;19.80;99.90
8988;DHT22;4529;51.360;12.474;2022-09-03T19:07:12;19.70;99.90
8988;DHT22;4529;51.360;12.474;2022-09-03T19:12:24;19.70;99.90
8988;DHT22;4529;51.360;12.474;2022-09-03T19:22:36;19.50;99.90
8988;DHT22;4529;51.360;12.474;2022-09-03T19:27:50;19.50;99.90
8988;DHT22;4529;51.360;12.474;2022-09-03T19:38:49;19.40;99.90
8988;DHT22;4529;51.360;12.474;2022-09-03T19:44:23;19.40;99.90
8988;DHT22;4529;51.360;12.474;2022-09-03T19:54:56;19.20;99.90
8988;DHT22;4529;51.360;12.474;2022-09-03T20:00:00;19.20;99.90
8988;DHT22;4529;51.360;12.474;2022-09-03T20:05:04;19.20;99.90
8988;DHT22;4529;51.360;12.474;2022-09-03T20:10:10;19.00;99.90
8988;DHT22;4529;51.360;12.474;2022-09-03T20:15:13;19.00;99.90
8988;DHT22;4529;51.360;12.474;2022-09-03T20:20:44;19.00;99.90
8988;DHT22;4529;51.360;12.474;2022-09-03T20:26:30;18.90;99.90
8988;DHT22;4529;51.360;12.474;2022-09-03T20:31:50;18.80;99.90
8988;DHT22;4529;51.360;12.474;2022-09-03T20:37:14;18.80;99.90
8988;DHT22;4529;51.360;12.474;2022-09-03T20:43:02;18.70;99.90
8988;DHT22;4529;51.360;12.474;2022-09-03T20:48:23;18.70;99.90
8988;DHT22;4529;51.360;12.474;2022-09-03T20:53:49;18.70;99.90
8988;DHT22;4529;51.360;12.474;2022-09-03T20:58:54;18.60;99.90
8988;DHT22;4529;51.360;12.474;2022-09-03T21:10:07;18.30;99.90
8988;DHT22;4529;51.360;12.474;2022-09-03T21:21:14;18.30;99.90
8988;DHT22;4529;51.360;12.474;2022-09-03T21:26:24;18.20;99.90
8988;DHT22;4529;51.360;12.474;2022-09-03T21:31:31;18.10;99.90
8988;DHT22;4529;51.360;12.474;2022-09-03T21:36:34;18.00;99.90
8988;DHT22;4529;51.360;12.474;2022-09-03T21:46:50;17.80;99.90
8988;DHT22;4529;51.360;12.474;2022-09-03T21:52:02;17.70;99.90
8988;DHT22;4529;51.360;12.474;2022-09-03T21:57:22;17.70;99.90
8988;DHT22;4529;51.360;12.474;2022-09-03T22:02:24;17.60;99.90
8988;DHT22;4529;51.360;12.474;2022-09-03T22:07:50;17.70;99.90
8988;DHT22;4529;51.360;12.474;2022-09-03T22:18:31;17.70;99.90
8988;DHT22;4529;51.360;12.474;2022-09-03T22:23:49;17.70;99.90
8988;DHT22;4529;51.360;12.474;2022-09-03T22:28:59;17.80;99.90
8988;DHT22;4529;51.360;12.474;2022-09-03T22:44:50;17.80;99.90
8988;DHT22;4529;51.360;12.474;2022-09-03T22:49:58;17.80;99.90
8988;DHT22;4529;51.360;12.474;2022-09-03T23:00:08;17.80;99.90
8988;DHT22;4529;51.360;12.474;2022-09-03T23:05:46;17.80;99.90
8988;DHT22;4529;51.360;12.474;2022-09-03T23:11:05;17.80;99.90
8988;DHT22;4529;51.360;12.474;2022-09-03T23:16:12;17.80;99.90
8988;DHT22;4529;51.360;12.474;2022-09-03T23:26:47;17.80;99.90
8988;DHT22;4529;51.360;12.474;2022-09-03T23:31:51;17.80;99.90
8988;DHT22;4529;51.360;12.474;2022-09-03T23:42:52;17.70;99.90
8988;DHT22;4529;51.360;12.474;2022-09-03T23:48:17;17.70;99.90
8988;DHT22;4529;51.360;12.474;2022-09-03T23:53:35;17.70;99.90
